Denver, Colorado
Traffic Map
Current Weather Conditions
Denver, Colorado
Broken Clouds
Broken Clouds

Feels Like: 5°
Wind Chill: Ceiling: 20000
Heat Index: Visibility: 10mi
Dew Point: -11° Wind: 6mph
Humidity: 28% Direction: 180° (S)
Pressure: 30.12in Gusts: 0mph
Raw Report DataKBKF 070358Z 18005KT 10SM BKN200 07/M11 A3012 RMK AO2A SLP197 T00651110
Traffic Incident Summary
Active as of:
Severity:
Category:
InformationThere was an issue retrieving the traffic information for this location. Please try a different location or try again shortly.
Advertisements
Track Severe Weather on mobile